sensor_id;sensor_type;location;lat;lon;timestamp;P1;durP1;ratioP1;P2;durP2;ratioP2
74245;SDS011;62601;51.044;13.788;2022-08-19T00:01:51;14.67;;;13.27;;
74245;SDS011;62601;51.044;13.788;2022-08-19T00:04:13;14.43;;;13.23;;
74245;SDS011;62601;51.044;13.788;2022-08-19T00:06:45;14.57;;;13.20;;
74245;SDS011;62601;51.044;13.788;2022-08-19T00:09:08;14.93;;;13.43;;
74245;SDS011;62601;51.044;13.788;2022-08-19T00:11:28;15.80;;;14.40;;
74245;SDS011;62601;51.044;13.788;2022-08-19T00:13:48;16.30;;;13.87;;
74245;SDS011;62601;51.044;13.788;2022-08-19T00:16:10;15.33;;;14.10;;
74245;SDS011;62601;51.044;13.788;2022-08-19T00:18:31;15.53;;;14.23;;
74245;SDS011;62601;51.044;13.788;2022-08-19T00:20:52;16.67;;;14.97;;
74245;SDS011;62601;51.044;13.788;2022-08-19T00:23:12;16.13;;;14.73;;
74245;SDS011;62601;51.044;13.788;2022-08-19T00:25:33;16.37;;;14.93;;
74245;SDS011;62601;51.044;13.788;2022-08-19T00:27:55;16.13;;;14.60;;
74245;SDS011;62601;51.044;13.788;2022-08-19T00:30:15;17.17;;;15.63;;
74245;SDS011;62601;51.044;13.788;2022-08-19T00:32:35;17.13;;;15.63;;
74245;SDS011;62601;51.044;13.788;2022-08-19T00:34:56;17.03;;;15.50;;
74245;SDS011;62601;51.044;13.788;2022-08-19T00:37:21;15.87;;;14.37;;
74245;SDS011;62601;51.044;13.788;2022-08-19T00:39:41;19.80;;;16.17;;
74245;SDS011;62601;51.044;13.788;2022-08-19T00:42:01;18.03;;;16.23;;
74245;SDS011;62601;51.044;13.788;2022-08-19T00:44:24;19.30;;;17.47;;
74245;SDS011;62601;51.044;13.788;2022-08-19T00:46:47;18.37;;;16.47;;
74245;SDS011;62601;51.044;13.788;2022-08-19T00:49:27;18.70;;;16.80;;
74245;SDS011;62601;51.044;13.788;2022-08-19T00:51:51;17.97;;;16.33;;
74245;SDS011;62601;51.044;13.788;2022-08-19T00:54:12;17.60;;;16.00;;
74245;SDS011;62601;51.044;13.788;2022-08-19T00:56:34;17.17;;;15.67;;
74245;SDS011;62601;51.044;13.788;2022-08-19T00:58:54;18.03;;;16.50;;
74245;SDS011;62601;51.044;13.788;2022-08-19T01:01:15;18.60;;;16.90;;
74245;SDS011;62601;51.044;13.788;2022-08-19T01:03:35;18.33;;;16.53;;
74245;SDS011;62601;51.044;13.788;2022-08-19T01:05:57;18.63;;;16.93;;
74245;SDS011;62601;51.044;13.788;2022-08-19T01:08:18;17.47;;;15.97;;
74245;SDS011;62601;51.044;13.788;2022-08-19T01:10:41;17.83;;;16.13;;
74245;SDS011;62601;51.044;13.788;2022-08-19T01:13:04;19.40;;;17.70;;
74245;SDS011;62601;51.044;13.788;2022-08-19T01:15:29;17.17;;;15.47;;
74245;SDS011;62601;51.044;13.788;2022-08-19T01:17:49;17.90;;;16.30;;
74245;SDS011;62601;51.044;13.788;2022-08-19T01:20:12;18.10;;;16.20;;
74245;SDS011;62601;51.044;13.788;2022-08-19T01:22:44;19.47;;;17.63;;
74245;SDS011;62601;51.044;13.788;2022-08-19T01:25:05;17.00;;;15.50;;
74245;SDS011;62601;51.044;13.788;2022-08-19T01:27:26;17.73;;;16.03;;
74245;SDS011;62601;51.044;13.788;2022-08-19T01:29:46;17.80;;;16.30;;
74245;SDS011;62601;51.044;13.788;2022-08-19T01:32:07;19.90;;;18.20;;
74245;SDS011;62601;51.044;13.788;2022-08-19T01:34:28;18.07;;;16.40;;
74245;SDS011;62601;51.044;13.788;2022-08-19T01:36:48;18.20;;;16.57;;
74245;SDS011;62601;51.044;13.788;2022-08-19T01:39:11;18.40;;;16.60;;
74245;SDS011;62601;51.044;13.788;2022-08-19T01:41:33;18.73;;;17.03;;
74245;SDS011;62601;51.044;13.788;2022-08-19T01:43:53;17.70;;;16.07;;
74245;SDS011;62601;51.044;13.788;2022-08-19T01:46:13;18.80;;;17.10;;
74245;SDS011;62601;51.044;13.788;2022-08-19T01:48:38;19.83;;;18.00;;
74245;SDS011;62601;51.044;13.788;2022-08-19T01:51:00;19.67;;;17.77;;
74245;SDS011;62601;51.044;13.788;2022-08-19T01:53:21;18.63;;;17.03;;
74245;SDS011;62601;51.044;13.788;2022-08-19T01:55:43;21.40;;;19.10;;
74245;SDS011;62601;51.044;13.788;2022-08-19T01:58:05;19.27;;;17.40;;
74245;SDS011;62601;51.044;13.788;2022-08-19T02:00:26;19.87;;;18.07;;
74245;SDS011;62601;51.044;13.788;2022-08-19T02:02:47;19.63;;;17.73;;
74245;SDS011;62601;51.044;13.788;2022-08-19T02:05:08;19.90;;;18.00;;
74245;SDS011;62601;51.044;13.788;2022-08-19T02:07:29;18.00;;;16.30;;
74245;SDS011;62601;51.044;13.788;2022-08-19T02:09:49;17.77;;;16.13;;
74245;SDS011;62601;51.044;13.788;2022-08-19T02:12:09;19.70;;;17.80;;
74245;SDS011;62601;51.044;13.788;2022-08-19T02:14:29;20.30;;;18.50;;
74245;SDS011;62601;51.044;13.788;2022-08-19T02:16:49;19.20;;;17.40;;
74245;SDS011;62601;51.044;13.788;2022-08-19T02:19:09;18.60;;;17.00;;
74245;SDS011;62601;51.044;13.788;2022-08-19T02:21:31;20.27;;;18.40;;
74245;SDS011;62601;51.044;13.788;2022-08-19T02:23:51;18.63;;;17.03;;
74245;SDS011;62601;51.044;13.788;2022-08-19T02:26:11;18.63;;;16.90;;
74245;SDS011;62601;51.044;13.788;2022-08-19T02:28:31;18.97;;;17.17;;
74245;SDS011;62601;51.044;13.788;2022-08-19T02:30:51;18.93;;;17.13;;
74245;SDS011;62601;51.044;13.788;2022-08-19T02:33:13;20.77;;;18.87;;
74245;SDS011;62601;51.044;13.788;2022-08-19T02:35:33;19.57;;;17.77;;
74245;SDS011;62601;51.044;13.788;2022-08-19T02:37:54;19.80;;;17.90;;
74245;SDS011;62601;51.044;13.788;2022-08-19T02:40:14;19.33;;;17.63;;
74245;SDS011;62601;51.044;13.788;2022-08-19T02:42:35;20.00;;;18.10;;
74245;SDS011;62601;51.044;13.788;2022-08-19T02:44:55;19.53;;;17.73;;
74245;SDS011;62601;51.044;13.788;2022-08-19T02:47:17;19.63;;;17.63;;
74245;SDS011;62601;51.044;13.788;2022-08-19T02:49:37;19.17;;;17.50;;
74245;SDS011;62601;51.044;13.788;2022-08-19T02:51:59;19.30;;;17.60;;
74245;SDS011;62601;51.044;13.788;2022-08-19T02:54:20;20.13;;;18.33;;
74245;SDS011;62601;51.044;13.788;2022-08-19T02:56:42;19.67;;;17.80;;
74245;SDS011;62601;51.044;13.788;2022-08-19T02:59:04;19.47;;;17.57;;
74245;SDS011;62601;51.044;13.788;2022-08-19T03:01:30;19.30;;;17.60;;
74245;SDS011;62601;51.044;13.788;2022-08-19T03:03:51;20.10;;;18.03;;
74245;SDS011;62601;51.044;13.788;2022-08-19T03:06:14;19.83;;;17.63;;
74245;SDS011;62601;51.044;13.788;2022-08-19T03:08:36;19.97;;;18.00;;
74245;SDS011;62601;51.044;13.788;2022-08-19T03:10:56;20.40;;;18.50;;
74245;SDS011;62601;51.044;13.788;2022-08-19T03:13:17;20.80;;;19.00;;
74245;SDS011;62601;51.044;13.788;2022-08-19T03:15:42;19.63;;;18.00;;
74245;SDS011;62601;51.044;13.788;2022-08-19T03:18:13;19.07;;;17.37;;
74245;SDS011;62601;51.044;13.788;2022-08-19T03:20:39;20.80;;;18.70;;
74245;SDS011;62601;51.044;13.788;2022-08-19T03:23:01;20.13;;;18.37;;
74245;SDS011;62601;51.044;13.788;2022-08-19T03:25:21;20.77;;;18.77;;
74245;SDS011;62601;51.044;13.788;2022-08-19T03:27:41;21.10;;;19.23;;
74245;SDS011;62601;51.044;13.788;2022-08-19T03:30:02;21.60;;;19.60;;
74245;SDS011;62601;51.044;13.788;2022-08-19T03:32:23;20.77;;;18.83;;
74245;SDS011;62601;51.044;13.788;2022-08-19T03:34:43;21.80;;;19.80;;
74245;SDS011;62601;51.044;13.788;2022-08-19T03:37:04;21.10;;;19.20;;
74245;SDS011;62601;51.044;13.788;2022-08-19T03:39:26;19.63;;;18.03;;
74245;SDS011;62601;51.044;13.788;2022-08-19T03:41:48;21.37;;;19.47;;
74245;SDS011;62601;51.044;13.788;2022-08-19T03:44:10;21.17;;;19.37;;
74245;SDS011;62601;51.044;13.788;2022-08-19T03:46:31;21.90;;;20.00;;
74245;SDS011;62601;51.044;13.788;2022-08-19T03:48:52;23.97;;;21.77;;
74245;SDS011;62601;51.044;13.788;2022-08-19T03:51:18;22.17;;;20.17;;
74245;SDS011;62601;51.044;13.788;2022-08-19T03:53:40;20.73;;;18.50;;
74245;SDS011;62601;51.044;13.788;2022-08-19T03:56:01;21.67;;;19.57;;
74245;SDS011;62601;51.044;13.788;2022-08-19T03:58:22;21.27;;;19.47;;
74245;SDS011;62601;51.044;13.788;2022-08-19T04:00:43;21.17;;;19.27;;
74245;SDS011;62601;51.044;13.788;2022-08-19T04:03:05;22.97;;;20.57;;
74245;SDS011;62601;51.044;13.788;2022-08-19T04:05:26;23.57;;;21.20;;
74245;SDS011;62601;51.044;13.788;2022-08-19T04:07:47;22.30;;;20.10;;
74245;SDS011;62601;51.044;13.788;2022-08-19T04:10:09;21.47;;;19.53;;
74245;SDS011;62601;51.044;13.788;2022-08-19T04:12:30;22.17;;;20.07;;
74245;SDS011;62601;51.044;13.788;2022-08-19T04:14:50;24.27;;;22.10;;
74245;SDS011;62601;51.044;13.788;2022-08-19T04:17:10;22.50;;;20.50;;
74245;SDS011;62601;51.044;13.788;2022-08-19T04:19:31;24.70;;;21.97;;
74245;SDS011;62601;51.044;13.788;2022-08-19T04:21:52;22.77;;;20.47;;
74245;SDS011;62601;51.044;13.788;2022-08-19T04:24:14;22.40;;;20.00;;
74245;SDS011;62601;51.044;13.788;2022-08-19T04:26:35;22.40;;;20.27;;
74245;SDS011;62601;51.044;13.788;2022-08-19T04:28:55;22.30;;;20.30;;
74245;SDS011;62601;51.044;13.788;2022-08-19T04:31:17;22.20;;;20.07;;
74245;SDS011;62601;51.044;13.788;2022-08-19T04:33:37;22.93;;;20.83;;
74245;SDS011;62601;51.044;13.788;2022-08-19T04:35:57;21.33;;;19.23;;
74245;SDS011;62601;51.044;13.788;2022-08-19T04:38:18;21.50;;;19.30;;
74245;SDS011;62601;51.044;13.788;2022-08-19T04:40:46;22.30;;;20.10;;
74245;SDS011;62601;51.044;13.788;2022-08-19T04:43:06;22.70;;;20.40;;
74245;SDS011;62601;51.044;13.788;2022-08-19T04:45:28;22.77;;;20.47;;
74245;SDS011;62601;51.044;13.788;2022-08-19T04:47:48;23.57;;;21.00;;
74245;SDS011;62601;51.044;13.788;2022-08-19T04:50:10;21.87;;;19.13;;
74245;SDS011;62601;51.044;13.788;2022-08-19T04:52:31;24.63;;;22.20;;
74245;SDS011;62601;51.044;13.788;2022-08-19T04:54:51;22.83;;;20.57;;
74245;SDS011;62601;51.044;13.788;2022-08-19T04:57:12;22.90;;;20.60;;
74245;SDS011;62601;51.044;13.788;2022-08-19T04:59:32;23.50;;;21.10;;
74245;SDS011;62601;51.044;13.788;2022-08-19T05:01:53;22.97;;;20.87;;
74245;SDS011;62601;51.044;13.788;2022-08-19T05:04:13;24.57;;;22.03;;
74245;SDS011;62601;51.044;13.788;2022-08-19T05:06:33;22.87;;;20.57;;
74245;SDS011;62601;51.044;13.788;2022-08-19T05:08:54;21.80;;;19.57;;
74245;SDS011;62601;51.044;13.788;2022-08-19T05:11:18;22.10;;;20.10;;
74245;SDS011;62601;51.044;13.788;2022-08-19T05:13:38;22.73;;;20.57;;
74245;SDS011;62601;51.044;13.788;2022-08-19T05:15:59;22.20;;;20.17;;
74245;SDS011;62601;51.044;13.788;2022-08-19T05:18:20;22.57;;;20.57;;
74245;SDS011;62601;51.044;13.788;2022-08-19T05:20:40;24.33;;;22.23;;
74245;SDS011;62601;51.044;13.788;2022-08-19T05:23:01;21.00;;;19.20;;
74245;SDS011;62601;51.044;13.788;2022-08-19T05:25:23;22.10;;;20.10;;
74245;SDS011;62601;51.044;13.788;2022-08-19T05:27:45;22.10;;;20.00;;
74245;SDS011;62601;51.044;13.788;2022-08-19T05:30:05;22.87;;;20.60;;
74245;SDS011;62601;51.044;13.788;2022-08-19T05:32:26;23.30;;;21.10;;
74245;SDS011;62601;51.044;13.788;2022-08-19T05:34:48;21.47;;;19.30;;
74245;SDS011;62601;51.044;13.788;2022-08-19T05:37:09;22.90;;;20.50;;
74245;SDS011;62601;51.044;13.788;2022-08-19T05:39:32;22.90;;;20.67;;
74245;SDS011;62601;51.044;13.788;2022-08-19T05:41:55;23.13;;;20.83;;
74245;SDS011;62601;51.044;13.788;2022-08-19T05:44:17;22.03;;;19.87;;
74245;SDS011;62601;51.044;13.788;2022-08-19T05:46:38;23.80;;;21.60;;
74245;SDS011;62601;51.044;13.788;2022-08-19T05:49:00;23.13;;;21.10;;
74245;SDS011;62601;51.044;13.788;2022-08-19T05:51:22;23.70;;;21.33;;
74245;SDS011;62601;51.044;13.788;2022-08-19T05:53:42;23.70;;;21.27;;
74245;SDS011;62601;51.044;13.788;2022-08-19T05:56:07;22.97;;;20.43;;
74245;SDS011;62601;51.044;13.788;2022-08-19T05:58:29;23.50;;;21.30;;
74245;SDS011;62601;51.044;13.788;2022-08-19T06:00:50;22.80;;;20.40;;
74245;SDS011;62601;51.044;13.788;2022-08-19T06:03:11;23.47;;;21.23;;
74245;SDS011;62601;51.044;13.788;2022-08-19T06:05:31;21.37;;;19.27;;
74245;SDS011;62601;51.044;13.788;2022-08-19T06:07:52;21.53;;;19.43;;
74245;SDS011;62601;51.044;13.788;2022-08-19T06:10:12;24.60;;;22.23;;
74245;SDS011;62601;51.044;13.788;2022-08-19T06:12:32;20.93;;;19.00;;
74245;SDS011;62601;51.044;13.788;2022-08-19T06:14:53;20.60;;;18.90;;
74245;SDS011;62601;51.044;13.788;2022-08-19T06:17:13;20.53;;;18.53;;
74245;SDS011;62601;51.044;13.788;2022-08-19T06:19:33;18.80;;;17.00;;
74245;SDS011;62601;51.044;13.788;2022-08-19T06:21:53;17.30;;;15.73;;
74245;SDS011;62601;51.044;13.788;2022-08-19T06:24:15;17.37;;;15.60;;
74245;SDS011;62601;51.044;13.788;2022-08-19T06:26:37;17.13;;;15.47;;
74245;SDS011;62601;51.044;13.788;2022-08-19T06:28:59;16.33;;;14.73;;
74245;SDS011;62601;51.044;13.788;2022-08-19T06:31:20;14.93;;;13.53;;
74245;SDS011;62601;51.044;13.788;2022-08-19T06:33:43;16.40;;;14.57;;
74245;SDS011;62601;51.044;13.788;2022-08-19T06:36:03;15.23;;;13.93;;
74245;SDS011;62601;51.044;13.788;2022-08-19T06:38:23;16.17;;;14.57;;
74245;SDS011;62601;51.044;13.788;2022-08-19T06:40:45;17.00;;;13.73;;
74245;SDS011;62601;51.044;13.788;2022-08-19T06:43:06;16.33;;;14.63;;
74245;SDS011;62601;51.044;13.788;2022-08-19T06:45:26;15.00;;;13.70;;
74245;SDS011;62601;51.044;13.788;2022-08-19T06:47:46;15.17;;;13.80;;
74245;SDS011;62601;51.044;13.788;2022-08-19T06:50:07;15.47;;;13.97;;
74245;SDS011;62601;51.044;13.788;2022-08-19T06:52:29;15.83;;;14.43;;
74245;SDS011;62601;51.044;13.788;2022-08-19T06:54:50;15.00;;;13.43;;
74245;SDS011;62601;51.044;13.788;2022-08-19T06:57:12;16.47;;;14.77;;
74245;SDS011;62601;51.044;13.788;2022-08-19T06:59:34;15.77;;;14.37;;
74245;SDS011;62601;51.044;13.788;2022-08-19T07:01:55;15.73;;;14.23;;
74245;SDS011;62601;51.044;13.788;2022-08-19T07:04:18;15.63;;;14.07;;
74245;SDS011;62601;51.044;13.788;2022-08-19T07:06:40;16.17;;;14.43;;
74245;SDS011;62601;51.044;13.788;2022-08-19T07:09:01;16.87;;;15.27;;
74245;SDS011;62601;51.044;13.788;2022-08-19T07:11:22;23.87;;;19.33;;
74245;SDS011;62601;51.044;13.788;2022-08-19T07:13:42;17.40;;;15.20;;
74245;SDS011;62601;51.044;13.788;2022-08-19T07:16:16;16.17;;;14.77;;
74245;SDS011;62601;51.044;13.788;2022-08-19T07:18:38;18.10;;;16.50;;
74245;SDS011;62601;51.044;13.788;2022-08-19T07:21:02;16.37;;;14.87;;
74245;SDS011;62601;51.044;13.788;2022-08-19T07:23:22;16.97;;;15.17;;
74245;SDS011;62601;51.044;13.788;2022-08-19T07:25:42;16.90;;;15.30;;
74245;SDS011;62601;51.044;13.788;2022-08-19T07:28:04;18.80;;;17.00;;
74245;SDS011;62601;51.044;13.788;2022-08-19T07:30:26;18.70;;;16.90;;
74245;SDS011;62601;51.044;13.788;2022-08-19T07:32:46;18.10;;;16.40;;
74245;SDS011;62601;51.044;13.788;2022-08-19T07:35:06;19.80;;;17.70;;
74245;SDS011;62601;51.044;13.788;2022-08-19T07:37:27;17.30;;;15.50;;
74245;SDS011;62601;51.044;13.788;2022-08-19T07:39:48;17.07;;;15.30;;
74245;SDS011;62601;51.044;13.788;2022-08-19T07:42:12;18.03;;;16.40;;
74245;SDS011;62601;51.044;13.788;2022-08-19T07:44:32;19.53;;;17.53;;
74245;SDS011;62601;51.044;13.788;2022-08-19T07:46:55;18.53;;;16.73;;
74245;SDS011;62601;51.044;13.788;2022-08-19T07:49:15;18.90;;;17.10;;
74245;SDS011;62601;51.044;13.788;2022-08-19T07:51:37;19.10;;;17.30;;
74245;SDS011;62601;51.044;13.788;2022-08-19T07:53:58;19.90;;;17.93;;
74245;SDS011;62601;51.044;13.788;2022-08-19T07:56:20;18.37;;;16.67;;
74245;SDS011;62601;51.044;13.788;2022-08-19T07:58:42;18.40;;;16.60;;
74245;SDS011;62601;51.044;13.788;2022-08-19T08:01:05;21.93;;;19.53;;
74245;SDS011;62601;51.044;13.788;2022-08-19T08:03:25;20.60;;;18.50;;
74245;SDS011;62601;51.044;13.788;2022-08-19T08:05:47;19.63;;;17.53;;
74245;SDS011;62601;51.044;13.788;2022-08-19T08:08:08;18.90;;;17.10;;
74245;SDS011;62601;51.044;13.788;2022-08-19T08:10:30;18.90;;;17.10;;
74245;SDS011;62601;51.044;13.788;2022-08-19T08:12:50;19.33;;;17.40;;
74245;SDS011;62601;51.044;13.788;2022-08-19T08:15:13;20.17;;;18.17;;
74245;SDS011;62601;51.044;13.788;2022-08-19T08:17:34;21.40;;;19.30;;
74245;SDS011;62601;51.044;13.788;2022-08-19T08:19:55;25.70;;;22.80;;
74245;SDS011;62601;51.044;13.788;2022-08-19T08:22:17;22.60;;;20.40;;
74245;SDS011;62601;51.044;13.788;2022-08-19T08:24:38;20.57;;;18.77;;
74245;SDS011;62601;51.044;13.788;2022-08-19T08:27:00;18.97;;;17.17;;
74245;SDS011;62601;51.044;13.788;2022-08-19T08:29:27;19.17;;;17.27;;
74245;SDS011;62601;51.044;13.788;2022-08-19T08:31:49;18.90;;;16.90;;
74245;SDS011;62601;51.044;13.788;2022-08-19T08:34:10;20.17;;;18.17;;
74245;SDS011;62601;51.044;13.788;2022-08-19T08:36:31;20.80;;;18.80;;
74245;SDS011;62601;51.044;13.788;2022-08-19T08:38:51;21.13;;;19.03;;
74245;SDS011;62601;51.044;13.788;2022-08-19T08:41:17;18.63;;;16.93;;
74245;SDS011;62601;51.044;13.788;2022-08-19T08:43:40;17.33;;;15.77;;
74245;SDS011;62601;51.044;13.788;2022-08-19T08:46:04;16.53;;;15.13;;
74245;SDS011;62601;51.044;13.788;2022-08-19T08:51:07;17.97;;;16.27;;
74245;SDS011;62601;51.044;13.788;2022-08-19T08:53:31;15.90;;;14.30;;
74245;SDS011;62601;51.044;13.788;2022-08-19T08:55:53;16.47;;;14.83;;
74245;SDS011;62601;51.044;13.788;2022-08-19T08:58:16;17.37;;;15.67;;
74245;SDS011;62601;51.044;13.788;2022-08-19T09:00:46;15.30;;;13.80;;
74245;SDS011;62601;51.044;13.788;2022-08-19T09:03:09;14.63;;;13.27;;
74245;SDS011;62601;51.044;13.788;2022-08-19T09:05:40;16.30;;;14.60;;
74245;SDS011;62601;51.044;13.788;2022-08-19T09:10:54;15.30;;;14.00;;
74245;SDS011;62601;51.044;13.788;2022-08-19T09:15:57;16.83;;;15.20;;
74245;SDS011;62601;51.044;13.788;2022-08-19T09:18:19;16.13;;;14.63;;
74245;SDS011;62601;51.044;13.788;2022-08-19T09:20:40;16.83;;;15.20;;
74245;SDS011;62601;51.044;13.788;2022-08-19T09:23:01;16.77;;;15.33;;
74245;SDS011;62601;51.044;13.788;2022-08-19T09:25:22;17.40;;;15.87;;
74245;SDS011;62601;51.044;13.788;2022-08-19T09:27:44;18.37;;;16.50;;
74245;SDS011;62601;51.044;13.788;2022-08-19T09:30:05;17.43;;;15.90;;
74245;SDS011;62601;51.044;13.788;2022-08-19T09:32:27;17.67;;;16.10;;
74245;SDS011;62601;51.044;13.788;2022-08-19T09:34:48;17.93;;;16.43;;
74245;SDS011;62601;51.044;13.788;2022-08-19T09:37:08;17.80;;;16.20;;
74245;SDS011;62601;51.044;13.788;2022-08-19T09:39:29;19.07;;;17.27;;
74245;SDS011;62601;51.044;13.788;2022-08-19T09:41:51;18.53;;;16.77;;
74245;SDS011;62601;51.044;13.788;2022-08-19T09:44:11;18.30;;;16.50;;
74245;SDS011;62601;51.044;13.788;2022-08-19T09:46:31;21.13;;;19.00;;
74245;SDS011;62601;51.044;13.788;2022-08-19T09:48:53;26.83;;;24.27;;
74245;SDS011;62601;51.044;13.788;2022-08-19T09:51:16;17.80;;;16.10;;
74245;SDS011;62601;51.044;13.788;2022-08-19T09:53:37;16.97;;;15.30;;
74245;SDS011;62601;51.044;13.788;2022-08-19T09:55:59;18.43;;;16.67;;
74245;SDS011;62601;51.044;13.788;2022-08-19T09:58:20;22.67;;;20.43;;
74245;SDS011;62601;51.044;13.788;2022-08-19T10:00:40;17.67;;;15.97;;
74245;SDS011;62601;51.044;13.788;2022-08-19T10:03:00;16.97;;;15.43;;
74245;SDS011;62601;51.044;13.788;2022-08-19T10:05:20;16.10;;;14.60;;
74245;SDS011;62601;51.044;13.788;2022-08-19T10:07:41;19.10;;;17.20;;
74245;SDS011;62601;51.044;13.788;2022-08-19T10:10:02;16.97;;;15.37;;
74245;SDS011;62601;51.044;13.788;2022-08-19T10:12:24;17.33;;;15.60;;
74245;SDS011;62601;51.044;13.788;2022-08-19T10:14:45;18.53;;;16.67;;
74245;SDS011;62601;51.044;13.788;2022-08-19T10:17:05;16.40;;;14.80;;
74245;SDS011;62601;51.044;13.788;2022-08-19T10:19:26;15.70;;;14.27;;
74245;SDS011;62601;51.044;13.788;2022-08-19T10:21:47;16.63;;;14.60;;
74245;SDS011;62601;51.044;13.788;2022-08-19T10:24:09;14.40;;;13.00;;
74245;SDS011;62601;51.044;13.788;2022-08-19T10:26:33;16.03;;;14.53;;
74245;SDS011;62601;51.044;13.788;2022-08-19T10:28:54;14.17;;;12.97;;
74245;SDS011;62601;51.044;13.788;2022-08-19T10:31:17;14.57;;;13.10;;
74245;SDS011;62601;51.044;13.788;2022-08-19T10:33:38;14.13;;;12.93;;
74245;SDS011;62601;51.044;13.788;2022-08-19T10:36:09;13.70;;;12.47;;
74245;SDS011;62601;51.044;13.788;2022-08-19T10:38:30;13.43;;;12.33;;
74245;SDS011;62601;51.044;13.788;2022-08-19T10:40:52;13.13;;;11.93;;
74245;SDS011;62601;51.044;13.788;2022-08-19T10:43:13;14.70;;;13.20;;
74245;SDS011;62601;51.044;13.788;2022-08-19T10:45:34;12.23;;;11.13;;
74245;SDS011;62601;51.044;13.788;2022-08-19T10:47:56;12.00;;;11.00;;
74245;SDS011;62601;51.044;13.788;2022-08-19T10:50:17;14.37;;;12.70;;
74245;SDS011;62601;51.044;13.788;2022-08-19T10:52:41;12.00;;;11.00;;
74245;SDS011;62601;51.044;13.788;2022-08-19T10:55:06;12.10;;;11.10;;
74245;SDS011;62601;51.044;13.788;2022-08-19T10:57:30;11.47;;;10.47;;
74245;SDS011;62601;51.044;13.788;2022-08-19T10:59:50;12.30;;;11.30;;
74245;SDS011;62601;51.044;13.788;2022-08-19T11:02:11;12.80;;;11.70;;
74245;SDS011;62601;51.044;13.788;2022-08-19T11:04:33;13.67;;;12.43;;
74245;SDS011;62601;51.044;13.788;2022-08-19T11:06:53;11.60;;;10.70;;
74245;SDS011;62601;51.044;13.788;2022-08-19T11:09:19;11.90;;;10.70;;
74245;SDS011;62601;51.044;13.788;2022-08-19T11:11:40;11.50;;;10.60;;
74245;SDS011;62601;51.044;13.788;2022-08-19T11:14:09;11.60;;;10.70;;
74245;SDS011;62601;51.044;13.788;2022-08-19T11:16:30;10.23;;;9.40;;
74245;SDS011;62601;51.044;13.788;2022-08-19T11:18:51;9.80;;;9.00;;
74245;SDS011;62601;51.044;13.788;2022-08-19T11:21:16;9.80;;;9.00;;
74245;SDS011;62601;51.044;13.788;2022-08-19T11:23:38;11.23;;;10.23;;
74245;SDS011;62601;51.044;13.788;2022-08-19T11:25:59;11.30;;;10.10;;
74245;SDS011;62601;51.044;13.788;2022-08-19T11:28:19;10.60;;;9.60;;
74245;SDS011;62601;51.044;13.788;2022-08-19T11:30:41;13.33;;;12.10;;
74245;SDS011;62601;51.044;13.788;2022-08-19T11:33:02;11.63;;;10.70;;
74245;SDS011;62601;51.044;13.788;2022-08-19T11:35:24;11.20;;;10.30;;
74245;SDS011;62601;51.044;13.788;2022-08-19T11:37:44;11.10;;;10.20;;
74245;SDS011;62601;51.044;13.788;2022-08-19T11:40:05;12.40;;;11.20;;
74245;SDS011;62601;51.044;13.788;2022-08-19T11:42:26;13.53;;;12.33;;
74245;SDS011;62601;51.044;13.788;2022-08-19T11:44:48;13.87;;;12.67;;
74245;SDS011;62601;51.044;13.788;2022-08-19T11:47:09;12.90;;;11.80;;
74245;SDS011;62601;51.044;13.788;2022-08-19T11:49:31;14.33;;;12.93;;
74245;SDS011;62601;51.044;13.788;2022-08-19T11:51:52;14.53;;;13.13;;
74245;SDS011;62601;51.044;13.788;2022-08-19T11:54:14;14.10;;;12.90;;
74245;SDS011;62601;51.044;13.788;2022-08-19T11:56:36;19.70;;;17.80;;
74245;SDS011;62601;51.044;13.788;2022-08-19T11:58:58;14.73;;;13.33;;
74245;SDS011;62601;51.044;13.788;2022-08-19T12:01:18;14.07;;;12.73;;
74245;SDS011;62601;51.044;13.788;2022-08-19T12:03:39;15.07;;;13.67;;
74245;SDS011;62601;51.044;13.788;2022-08-19T12:06:04;13.90;;;12.73;;
74245;SDS011;62601;51.044;13.788;2022-08-19T12:08:25;14.70;;;13.40;;
74245;SDS011;62601;51.044;13.788;2022-08-19T12:10:45;14.80;;;13.40;;
74245;SDS011;62601;51.044;13.788;2022-08-19T12:13:07;14.97;;;13.60;;
74245;SDS011;62601;51.044;13.788;2022-08-19T12:15:28;15.37;;;14.03;;
74245;SDS011;62601;51.044;13.788;2022-08-19T12:17:49;14.83;;;13.63;;
74245;SDS011;62601;51.044;13.788;2022-08-19T12:20:10;17.60;;;15.80;;
74245;SDS011;62601;51.044;13.788;2022-08-19T12:22:30;19.10;;;17.40;;
74245;SDS011;62601;51.044;13.788;2022-08-19T12:24:51;18.13;;;16.27;;
74245;SDS011;62601;51.044;13.788;2022-08-19T12:27:13;20.00;;;18.10;;
74245;SDS011;62601;51.044;13.788;2022-08-19T12:29:35;21.87;;;19.77;;
74245;SDS011;62601;51.044;13.788;2022-08-19T12:31:55;20.03;;;18.00;;
74245;SDS011;62601;51.044;13.788;2022-08-19T12:34:17;22.00;;;19.83;;
74245;SDS011;62601;51.044;13.788;2022-08-19T12:36:37;22.20;;;20.00;;
74245;SDS011;62601;51.044;13.788;2022-08-19T12:38:58;22.10;;;19.90;;
74245;SDS011;62601;51.044;13.788;2022-08-19T12:41:21;25.70;;;22.93;;
74245;SDS011;62601;51.044;13.788;2022-08-19T12:43:42;25.13;;;22.60;;
74245;SDS011;62601;51.044;13.788;2022-08-19T12:46:02;24.13;;;20.60;;
74245;SDS011;62601;51.044;13.788;2022-08-19T12:48:23;24.70;;;22.20;;
74245;SDS011;62601;51.044;13.788;2022-08-19T12:50:45;22.87;;;20.67;;
74245;SDS011;62601;51.044;13.788;2022-08-19T12:53:06;22.07;;;19.90;;
74245;SDS011;62601;51.044;13.788;2022-08-19T12:55:26;24.33;;;21.93;;
74245;SDS011;62601;51.044;13.788;2022-08-19T12:57:48;22.70;;;20.40;;
74245;SDS011;62601;51.044;13.788;2022-08-19T13:00:10;22.43;;;20.23;;
74245;SDS011;62601;51.044;13.788;2022-08-19T13:02:33;23.83;;;21.33;;
74245;SDS011;62601;51.044;13.788;2022-08-19T13:04:54;26.47;;;20.07;;
74245;SDS011;62601;51.044;13.788;2022-08-19T13:07:16;21.27;;;19.00;;
74245;SDS011;62601;51.044;13.788;2022-08-19T13:09:36;22.77;;;20.47;;
74245;SDS011;62601;51.044;13.788;2022-08-19T13:11:57;21.70;;;19.57;;
74245;SDS011;62601;51.044;13.788;2022-08-19T13:14:17;21.53;;;19.53;;
74245;SDS011;62601;51.044;13.788;2022-08-19T13:16:37;20.90;;;18.83;;
74245;SDS011;62601;51.044;13.788;2022-08-19T13:18:58;21.63;;;19.13;;
74245;SDS011;62601;51.044;13.788;2022-08-19T13:21:19;21.20;;;19.10;;
74245;SDS011;62601;51.044;13.788;2022-08-19T13:23:41;21.30;;;19.27;;
74245;SDS011;62601;51.044;13.788;2022-08-19T13:26:03;21.20;;;19.20;;
74245;SDS011;62601;51.044;13.788;2022-08-19T13:28:24;21.13;;;18.97;;
74245;SDS011;62601;51.044;13.788;2022-08-19T13:30:46;22.90;;;20.50;;
74245;SDS011;62601;51.044;13.788;2022-08-19T13:33:07;22.53;;;20.53;;
74245;SDS011;62601;51.044;13.788;2022-08-19T13:35:28;21.90;;;19.70;;
74245;SDS011;62601;51.044;13.788;2022-08-19T13:37:49;22.73;;;20.60;;
74245;SDS011;62601;51.044;13.788;2022-08-19T13:40:13;22.97;;;20.63;;
74245;SDS011;62601;51.044;13.788;2022-08-19T13:42:35;24.00;;;21.60;;
74245;SDS011;62601;51.044;13.788;2022-08-19T13:44:56;24.70;;;22.00;;